createdAt,value
2019-05-20T00:01:46.903Z,78.90
2019-05-20T00:04:13.717Z,79.20
2019-05-20T00:06:40.447Z,79.50
2019-05-20T00:09:07.201Z,79.90
2019-05-20T00:11:34.100Z,79.70
2019-05-20T00:14:00.841Z,80.00
2019-05-20T00:16:27.584Z,80.30
2019-05-20T00:18:54.481Z,80.10
2019-05-20T00:21:21.234Z,80.10
2019-05-20T00:23:47.996Z,80.20
2019-05-20T00:26:14.818Z,79.70
2019-05-20T00:28:41.560Z,80.30
2019-05-20T00:31:08.298Z,80.50
2019-05-20T00:33:35.078Z,80.50
2019-05-20T00:36:01.811Z,80.60
2019-05-20T00:38:28.550Z,81.00
2019-05-20T00:40:55.333Z,81.30
2019-05-20T00:43:22.135Z,81.10
2019-05-20T00:45:48.870Z,81.40
2019-05-20T00:48:15.697Z,81.40
2019-05-20T00:50:42.447Z,81.30
2019-05-20T00:53:09.390Z,81.60
2019-05-20T00:55:38.676Z,81.40
2019-05-20T00:58:05.433Z,81.40
2019-05-20T01:00:32.464Z,81.20
2019-05-20T01:02:59.367Z,81.40
2019-05-20T01:05:26.084Z,81.00
2019-05-20T01:07:52.862Z,81.90
2019-05-20T01:10:20.969Z,81.00
2019-05-20T01:12:47.726Z,80.90
2019-05-20T01:15:14.975Z,81.30
2019-05-20T01:17:41.752Z,81.20
2019-05-20T01:20:08.984Z,81.60
2019-05-20T01:22:35.720Z,81.30
2019-05-20T01:25:04.332Z,81.70
2019-05-20T01:27:31.079Z,82.40
2019-05-20T01:29:57.803Z,81.70
2019-05-20T01:32:24.634Z,81.80
2019-05-20T01:34:51.364Z,81.80
2019-05-20T01:37:18.091Z,81.80
2019-05-20T01:39:44.903Z,81.70
2019-05-20T01:42:11.675Z,81.60
2019-05-20T01:44:38.433Z,81.50
2019-05-20T01:47:05.342Z,81.80
2019-05-20T01:49:32.076Z,81.70
2019-05-20T01:51:58.830Z,81.50
2019-05-20T01:54:25.751Z,81.80
2019-05-20T01:56:52.545Z,81.70
2019-05-20T01:59:19.322Z,81.70
2019-05-20T02:01:46.202Z,82.00
2019-05-20T02:04:12.951Z,81.70
2019-05-20T02:06:39.663Z,81.70
2019-05-20T02:09:07.597Z,81.80
2019-05-20T02:11:34.365Z,81.90
2019-05-20T02:14:01.171Z,81.70
2019-05-20T02:16:28.328Z,81.70
2019-05-20T02:18:55.063Z,81.90
2019-05-20T02:21:21.834Z,82.20
2019-05-20T02:23:48.760Z,82.30
2019-05-20T02:26:15.534Z,82.10
2019-05-20T02:28:42.297Z,82.20
2019-05-20T02:31:09.142Z,82.10
2019-05-20T02:33:50.696Z,82.20
2019-05-20T02:36:04.376Z,82.00
2019-05-20T02:38:31.175Z,81.80
2019-05-20T02:40:57.931Z,81.60
2019-05-20T02:43:24.809Z,81.60
2019-05-20T02:45:51.594Z,81.40
2019-05-20T02:48:18.362Z,81.40
2019-05-20T02:50:45.101Z,81.00
2019-05-20T02:53:11.897Z,81.20
2019-05-20T02:55:38.653Z,81.40
2019-05-20T02:58:05.427Z,81.50
2019-05-20T03:00:32.342Z,81.70
2019-05-20T03:02:59.095Z,81.60
2019-05-20T03:05:25.868Z,81.80
2019-05-20T03:07:52.818Z,81.70
2019-05-20T03:10:19.539Z,81.70
2019-05-20T03:12:46.265Z,82.00
2019-05-20T03:15:13.793Z,82.00
2019-05-20T03:17:40.534Z,82.50
2019-05-20T03:20:07.698Z,82.30
2019-05-20T03:22:34.562Z,82.90
2019-05-20T03:25:01.513Z,82.30
2019-05-20T03:27:28.268Z,82.00
2019-05-20T03:29:55.081Z,81.90
2019-05-20T03:32:21.842Z,82.10
2019-05-20T03:34:58.784Z,83.00
2019-05-20T03:37:17.204Z,82.00
2019-05-20T03:39:43.965Z,81.70
2019-05-20T03:42:10.715Z,81.40
2019-05-20T03:44:37.582Z,81.30
2019-05-20T03:47:04.291Z,81.50
2019-05-20T03:49:31.052Z,81.30
2019-05-20T03:51:57.989Z,81.20
2019-05-20T03:54:24.733Z,81.00
2019-05-20T03:56:51.494Z,81.20
2019-05-20T03:59:18.305Z,81.10
2019-05-20T04:01:45.052Z,81.10
2019-05-20T04:04:11.794Z,81.10
2019-05-20T04:06:38.701Z,81.30
2019-05-20T04:09:06.575Z,81.20
2019-05-20T04:11:33.323Z,81.00
2019-05-20T04:14:00.200Z,80.80
2019-05-20T04:16:26.946Z,81.00
2019-05-20T04:18:54.446Z,81.20
2019-05-20T04:21:21.287Z,81.00
2019-05-20T04:23:48.314Z,81.00
2019-05-20T04:26:15.107Z,80.40
2019-05-20T04:28:41.989Z,80.60
2019-05-20T04:31:08.755Z,80.90
2019-05-20T04:33:35.497Z,81.20
2019-05-20T04:36:02.508Z,81.30
2019-05-20T04:38:29.262Z,81.60
2019-05-20T04:40:56.022Z,81.90
2019-05-20T04:43:22.879Z,82.20
2019-05-20T04:45:49.725Z,82.10
2019-05-20T04:48:16.463Z,82.20
2019-05-20T04:50:43.488Z,82.20
2019-05-20T04:53:10.239Z,82.10
2019-05-20T04:55:37.007Z,82.20
2019-05-20T04:58:03.899Z,82.10
2019-05-20T05:00:47.855Z,82.10
2019-05-20T05:03:14.654Z,82.20
2019-05-20T05:05:41.430Z,82.30
2019-05-20T05:08:08.190Z,82.00
2019-05-20T05:10:34.992Z,82.30
2019-05-20T05:13:01.732Z,82.50
2019-05-20T05:15:28.471Z,82.50
2019-05-20T05:17:55.352Z,82.30
2019-05-20T05:20:22.215Z,82.00
2019-05-20T05:22:48.953Z,82.10
2019-05-20T05:25:15.839Z,82.10
2019-05-20T05:27:42.626Z,82.00
2019-05-20T05:30:09.566Z,82.20
2019-05-20T05:32:36.367Z,82.30
2019-05-20T05:35:05.258Z,82.60
2019-05-20T05:37:32.002Z,82.60
2019-05-20T05:39:58.812Z,82.50
2019-05-20T05:42:25.554Z,82.70
2019-05-20T05:44:52.319Z,83.10
2019-05-20T05:47:19.267Z,83.10
2019-05-20T05:49:46.013Z,83.10
2019-05-20T05:52:12.782Z,82.60
2019-05-20T05:54:39.606Z,83.00
2019-05-20T05:57:06.344Z,83.60
2019-05-20T05:59:33.088Z,83.00
2019-05-20T06:01:59.980Z,82.80
2019-05-20T06:04:26.723Z,83.30
2019-05-20T06:06:53.543Z,82.50
2019-05-20T06:09:20.387Z,82.90
2019-05-20T06:11:47.093Z,82.60
2019-05-20T06:14:13.872Z,83.20
2019-05-20T06:16:41.393Z,83.40
2019-05-20T06:19:08.150Z,83.40
2019-05-20T06:21:54.778Z,83.00
2019-05-20T06:24:21.530Z,83.20
2019-05-20T06:26:48.286Z,83.20
2019-05-20T06:29:15.085Z,84.10
2019-05-20T06:31:42.056Z,83.90
2019-05-20T06:34:08.795Z,83.80
2019-05-20T06:36:35.701Z,83.40
2019-05-20T06:39:04.654Z,83.10
2019-05-20T06:41:31.435Z,82.90
2019-05-20T06:43:58.341Z,83.00
2019-05-20T06:46:25.069Z,83.10
2019-05-20T06:48:51.858Z,83.40
2019-05-20T06:51:18.662Z,83.60
2019-05-20T06:53:45.396Z,83.50
2019-05-20T06:56:12.151Z,83.30
2019-05-20T06:58:39.032Z,83.60
2019-05-20T07:01:05.761Z,83.70
2019-05-20T07:03:32.604Z,83.50
2019-05-20T07:05:59.520Z,83.80
2019-05-20T07:08:26.244Z,84.10
2019-05-20T07:10:53.167Z,84.00
2019-05-20T07:13:39.705Z,84.00
2019-05-20T07:16:06.446Z,83.90
2019-05-20T07:18:33.198Z,83.90
2019-05-20T07:21:00.117Z,83.60
2019-05-20T07:23:26.873Z,83.70
2019-05-20T07:25:53.739Z,83.80
2019-05-20T07:28:21.033Z,83.90
2019-05-20T07:30:47.784Z,84.30
2019-05-20T07:33:14.529Z,84.30
2019-05-20T07:35:41.355Z,84.40
2019-05-20T07:38:08.111Z,84.50
2019-05-20T07:40:34.847Z,84.30
2019-05-20T07:43:02.201Z,83.60
2019-05-20T07:45:32.679Z,83.90
2019-05-20T07:47:59.898Z,82.90
2019-05-20T07:50:28.347Z,82.70
2019-05-20T07:52:55.519Z,82.50
2019-05-20T07:55:27.233Z,82.50
2019-05-20T07:57:59.528Z,83.30
2019-05-20T08:00:26.319Z,83.40
2019-05-20T08:02:53.098Z,82.60
2019-05-20T08:05:19.837Z,82.50
2019-05-20T08:07:52.522Z,82.50
2019-05-20T08:10:15.385Z,82.00
2019-05-20T08:12:42.274Z,81.40
2019-05-20T08:15:09.928Z,82.40
2019-05-20T08:17:36.687Z,82.70
2019-05-20T08:20:07.656Z,80.10
2019-05-20T08:22:34.558Z,80.40
2019-05-20T08:25:02.792Z,81.10
2019-05-20T08:27:29.679Z,81.20
2019-05-20T08:29:56.428Z,81.10
2019-05-20T08:32:23.282Z,80.80
2019-05-20T08:34:50.277Z,81.30
2019-05-20T08:37:17.057Z,81.30
2019-05-20T08:39:43.810Z,81.00
2019-05-20T08:42:11.627Z,81.10
2019-05-20T08:44:38.502Z,80.70
2019-05-20T08:47:05.259Z,80.50
2019-05-20T08:49:32.091Z,82.50
2019-05-20T08:51:58.926Z,81.30
2019-05-20T08:54:25.719Z,81.70
2019-05-20T08:56:52.672Z,82.50
2019-05-20T08:59:19.438Z,82.40
2019-05-20T09:01:46.229Z,81.20
2019-05-20T09:04:13.190Z,82.30
2019-05-20T09:06:39.971Z,83.10
2019-05-20T09:09:06.744Z,82.60
2019-05-20T09:11:33.609Z,83.10
2019-05-20T09:14:00.539Z,83.30
2019-05-20T09:16:27.339Z,83.20
2019-05-20T09:18:54.369Z,82.80
2019-05-20T09:21:21.156Z,82.60
2019-05-20T09:23:47.927Z,82.50
2019-05-20T09:26:14.867Z,82.40
2019-05-20T09:28:41.668Z,81.70
2019-05-20T09:31:08.681Z,81.60
2019-05-20T09:33:36.496Z,81.80
2019-05-20T09:36:03.700Z,80.90
2019-05-20T09:38:30.493Z,79.60
2019-05-20T09:40:57.420Z,80.10
2019-05-20T09:43:24.300Z,80.50
2019-05-20T09:46:05.744Z,81.10
2019-05-20T09:48:19.875Z,81.00
2019-05-20T09:50:46.648Z,80.80
2019-05-20T09:53:13.470Z,81.90
2019-05-20T09:55:40.394Z,82.00
2019-05-20T09:58:07.378Z,81.90
2019-05-20T10:00:34.647Z,81.10
2019-05-20T10:03:01.563Z,81.10
2019-05-20T10:05:28.425Z,80.50
2019-05-20T10:07:55.233Z,80.70
2019-05-20T10:10:22.689Z,81.20
2019-05-20T10:12:49.465Z,79.60
2019-05-20T10:15:17.010Z,81.30
2019-05-20T10:17:44.033Z,81.30
2019-05-20T10:20:12.185Z,80.00
2019-05-20T10:22:38.969Z,81.30
2019-05-20T10:25:07.533Z,80.00
2019-05-20T10:27:34.294Z,81.00
2019-05-20T10:30:01.090Z,81.70
2019-05-20T10:32:27.919Z,78.20
2019-05-20T10:34:54.767Z,80.10
2019-05-20T10:37:21.632Z,80.10
2019-05-20T10:39:48.565Z,80.60
2019-05-20T10:42:15.350Z,81.00
2019-05-20T10:44:42.181Z,80.90
2019-05-20T10:47:09.070Z,81.30
2019-05-20T10:49:35.859Z,80.80
2019-05-20T10:52:02.659Z,79.60
2019-05-20T10:54:29.590Z,79.60
2019-05-20T10:56:59.567Z,80.30
2019-05-20T10:59:24.942Z,80.80
2019-05-20T11:01:51.893Z,81.20
2019-05-20T11:04:18.684Z,81.10
2019-05-20T11:06:45.491Z,81.70
2019-05-20T11:09:14.303Z,80.90
2019-05-20T11:11:40.984Z,80.80
2019-05-20T11:14:08.866Z,80.70
2019-05-20T11:16:35.712Z,79.50
2019-05-20T11:19:02.879Z,79.60
2019-05-20T11:21:29.828Z,79.10
2019-05-20T11:23:56.651Z,79.50
2019-05-20T11:26:23.424Z,79.50
2019-05-20T11:28:50.219Z,79.80
2019-05-20T11:31:17.162Z,79.50
2019-05-20T11:33:43.942Z,79.80
2019-05-20T11:36:12.075Z,79.80
2019-05-20T11:38:39.027Z,80.10
2019-05-20T11:41:07.546Z,80.00
2019-05-20T11:43:35.672Z,80.00
2019-05-20T11:46:02.653Z,80.60
2019-05-20T11:48:29.385Z,79.90
2019-05-20T11:50:56.175Z,80.00
2019-05-20T11:53:23.212Z,79.50
2019-05-20T11:55:50.003Z,79.90
2019-05-20T11:58:16.934Z,80.00
2019-05-20T12:00:43.861Z,79.70
2019-05-20T12:03:10.630Z,80.40
2019-05-20T12:05:42.410Z,81.30
2019-05-20T12:08:13.781Z,81.10
2019-05-20T12:10:43.510Z,80.60
2019-05-20T12:13:12.513Z,80.40
2019-05-20T12:15:42.303Z,80.00
2019-05-20T12:18:09.013Z,80.30
2019-05-20T12:20:35.776Z,81.00
2019-05-20T12:23:02.680Z,81.10
2019-05-20T12:25:29.420Z,80.50
2019-05-20T12:27:56.189Z,80.20
2019-05-20T12:30:23.072Z,79.60
2019-05-20T12:32:49.842Z,79.30
2019-05-20T12:35:16.614Z,78.70
2019-05-20T12:37:45.681Z,79.70
2019-05-20T12:40:13.944Z,79.30
2019-05-20T12:42:40.849Z,79.40
2019-05-20T12:45:08.932Z,78.00
2019-05-20T12:47:35.670Z,78.40
2019-05-20T12:50:04.345Z,79.10
2019-05-20T12:52:31.231Z,79.40
2019-05-20T12:55:17.666Z,78.90
2019-05-20T12:57:44.626Z,78.60
2019-05-20T13:00:14.879Z,79.00
2019-05-20T13:02:42.123Z,78.90
2019-05-20T13:05:09.443Z,78.20
2019-05-20T13:07:36.262Z,79.00
2019-05-20T13:10:26.645Z,79.30
2019-05-20T13:12:36.571Z,77.30
2019-05-20T13:15:08.487Z,78.00
2019-05-20T13:17:35.272Z,78.40
2019-05-20T13:20:02.345Z,77.60
2019-05-20T13:22:29.139Z,78.60
2019-05-20T13:24:55.927Z,79.00
2019-05-20T13:27:22.858Z,78.50
2019-05-20T13:29:49.625Z,78.30
2019-05-20T13:32:21.132Z,78.30
2019-05-20T13:34:48.325Z,78.10
2019-05-20T13:37:15.272Z,78.40
2019-05-20T13:39:45.848Z,78.50
2019-05-20T13:42:17.267Z,78.30
2019-05-20T13:44:44.091Z,78.30
2019-05-20T13:47:11.286Z,77.70
2019-05-20T13:49:38.387Z,77.50
2019-05-20T13:52:05.181Z,78.00
2019-05-20T13:54:32.124Z,78.30
2019-05-20T13:56:59.220Z,77.60
2019-05-20T13:59:26.269Z,78.30
2019-05-20T14:01:53.242Z,78.30
2019-05-20T14:04:20.324Z,78.30
2019-05-20T14:06:47.170Z,77.80
2019-05-20T14:09:13.997Z,78.10
2019-05-20T14:11:41.043Z,76.70
2019-05-20T14:14:08.193Z,77.30
2019-05-20T14:16:35.013Z,76.80
2019-05-20T14:19:01.963Z,76.70
2019-05-20T14:21:28.785Z,77.30
2019-05-20T14:23:55.724Z,77.40
2019-05-20T14:26:22.974Z,77.50
2019-05-20T14:28:52.674Z,77.70
2019-05-20T14:31:19.612Z,78.30
2019-05-20T14:33:46.809Z,78.20
2019-05-20T14:36:36.071Z,77.60
2019-05-20T14:38:42.387Z,78.40
2019-05-20T14:41:20.875Z,77.30
2019-05-20T14:43:38.202Z,77.40
2019-05-20T14:46:05.064Z,77.00
2019-05-20T14:48:32.842Z,77.80
2019-05-20T14:51:00.017Z,78.30
2019-05-20T14:53:26.785Z,78.80
2019-05-20T14:55:53.673Z,78.20
2019-05-20T14:58:20.518Z,78.10
2019-05-20T15:00:47.264Z,78.80
2019-05-20T15:03:14.246Z,78.90
2019-05-20T15:05:41.222Z,76.50
2019-05-20T15:08:07.991Z,77.80
2019-05-20T15:10:34.889Z,77.70
2019-05-20T15:13:01.620Z,76.70
2019-05-20T15:15:28.901Z,77.40
2019-05-20T15:17:55.753Z,77.90
2019-05-20T15:20:22.493Z,77.70
2019-05-20T15:22:49.228Z,77.90
2019-05-20T15:25:16.119Z,78.20
2019-05-20T15:27:42.886Z,78.20
2019-05-20T15:30:09.955Z,78.20
2019-05-20T15:32:36.862Z,78.20
2019-05-20T15:35:04.906Z,78.20
2019-05-20T15:37:31.668Z,78.40
2019-05-20T15:39:58.553Z,77.80
2019-05-20T15:42:25.300Z,78.60
2019-05-20T15:44:52.253Z,78.40
2019-05-20T15:47:19.252Z,78.90
2019-05-20T15:49:46.168Z,78.20
2019-05-20T15:52:12.923Z,78.30
2019-05-20T15:54:39.741Z,78.30
2019-05-20T15:57:06.492Z,77.90
2019-05-20T15:59:45.565Z,78.20
2019-05-20T16:02:02.007Z,78.30
2019-05-20T16:04:28.829Z,78.00
2019-05-20T16:06:55.591Z,77.40
2019-05-20T16:09:22.391Z,76.90
2019-05-20T16:11:49.124Z,77.00
2019-05-20T16:14:15.899Z,78.30
2019-05-20T16:16:42.901Z,77.30
2019-05-20T16:19:09.606Z,76.60
2019-05-20T16:21:36.369Z,77.10
2019-05-20T16:24:03.416Z,77.30
2019-05-20T16:26:30.247Z,77.70
2019-05-20T16:28:57.001Z,77.00
2019-05-20T16:31:23.982Z,77.10
2019-05-20T16:33:50.713Z,77.50
2019-05-20T16:36:17.487Z,79.00
2019-05-20T16:38:44.532Z,77.10
2019-05-20T16:41:11.283Z,76.80
2019-05-20T16:43:38.100Z,77.20
2019-05-20T16:46:04.889Z,77.90
2019-05-20T16:48:31.633Z,78.70
2019-05-20T16:50:58.378Z,78.20
2019-05-20T16:53:25.292Z,76.90
2019-05-20T16:55:52.173Z,77.20
2019-05-20T16:58:18.920Z,76.90
2019-05-20T17:00:45.996Z,77.10
2019-05-20T17:03:12.761Z,77.10
2019-05-20T17:05:39.504Z,77.40
2019-05-20T17:08:07.437Z,77.30
2019-05-20T17:10:34.196Z,77.20
2019-05-20T17:13:00.940Z,77.20
2019-05-20T17:15:27.882Z,77.10
2019-05-20T17:17:54.619Z,77.80
2019-05-20T17:20:21.368Z,77.00
2019-05-20T17:22:48.275Z,77.30
2019-05-20T17:25:15.127Z,77.20
2019-05-20T17:27:43.861Z,77.80
2019-05-20T17:30:11.339Z,78.70
2019-05-20T17:32:38.099Z,79.70
2019-05-20T17:35:05.496Z,79.50
2019-05-20T17:37:32.324Z,79.70
2019-05-20T17:39:59.153Z,80.00
2019-05-20T17:42:25.886Z,81.00
2019-05-20T17:44:52.710Z,81.20
2019-05-20T17:47:19.444Z,80.90
2019-05-20T17:49:46.443Z,81.50
2019-05-20T17:52:13.349Z,81.30
2019-05-20T17:54:40.083Z,81.30
2019-05-20T17:57:06.838Z,81.60
2019-05-20T17:59:33.742Z,81.80
2019-05-20T18:02:00.683Z,81.60
2019-05-20T18:04:27.458Z,82.00
2019-05-20T18:06:54.270Z,82.40
2019-05-20T18:09:21.747Z,81.90
2019-05-20T18:11:50.452Z,81.60
2019-05-20T18:14:17.253Z,82.00
2019-05-20T18:16:43.994Z,82.70
2019-05-20T18:19:10.720Z,82.40
2019-05-20T18:21:39.718Z,82.70
2019-05-20T18:24:06.277Z,82.60
2019-05-20T18:26:33.017Z,82.50
2019-05-20T18:28:59.915Z,82.80
2019-05-20T18:31:32.516Z,83.30
2019-05-20T18:33:55.251Z,83.50
2019-05-20T18:36:22.235Z,83.20
2019-05-20T18:38:49.772Z,83.10
2019-05-20T18:41:22.663Z,83.60
2019-05-20T18:43:50.905Z,83.30
2019-05-20T18:46:17.651Z,82.70
2019-05-20T18:48:44.430Z,83.00
2019-05-20T18:51:11.210Z,82.70
2019-05-20T18:53:37.977Z,82.40
2019-05-20T18:56:04.729Z,83.10
2019-05-20T18:58:31.753Z,82.80
2019-05-20T19:00:58.514Z,82.20
2019-05-20T19:03:25.849Z,82.70
2019-05-20T19:05:53.463Z,82.70
2019-05-20T19:08:20.284Z,82.50
2019-05-20T19:10:47.036Z,83.20
2019-05-20T19:13:13.917Z,83.10
2019-05-20T19:15:40.643Z,83.50
2019-05-20T19:18:07.488Z,83.70
2019-05-20T19:20:34.299Z,84.10
2019-05-20T19:23:01.052Z,83.30
2019-05-20T19:25:37.463Z,83.50
2019-05-20T19:27:56.587Z,83.50
2019-05-20T19:30:23.324Z,83.40
2019-05-20T19:32:50.046Z,82.90
2019-05-20T19:35:16.933Z,83.00
2019-05-20T19:37:43.670Z,83.10
2019-05-20T19:40:11.108Z,84.00
2019-05-20T19:42:37.945Z,83.40
2019-05-20T19:45:05.264Z,83.90
2019-05-20T19:47:32.009Z,83.80
2019-05-20T19:49:58.943Z,83.50
2019-05-20T19:52:25.712Z,83.00
2019-05-20T19:54:52.468Z,83.70
2019-05-20T19:57:19.360Z,83.50
2019-05-20T19:59:46.111Z,83.50
2019-05-20T20:02:17.515Z,84.10
2019-05-20T20:04:41.570Z,82.70
2019-05-20T20:07:08.338Z,81.10
2019-05-20T20:09:35.087Z,81.90
2019-05-20T20:12:01.882Z,82.40
2019-05-20T20:14:28.637Z,82.50
2019-05-20T20:16:55.420Z,82.50
2019-05-20T20:19:22.352Z,82.40
2019-05-20T20:21:49.080Z,82.30
2019-05-20T20:24:15.824Z,81.60
2019-05-20T20:26:42.822Z,81.40
2019-05-20T20:29:11.227Z,81.70
2019-05-20T20:31:38.130Z,82.30
2019-05-20T20:34:05.542Z,82.10
2019-05-20T20:36:32.293Z,81.80
2019-05-20T20:38:59.043Z,82.20
2019-05-20T20:41:25.876Z,82.70
2019-05-20T20:43:52.602Z,83.00
2019-05-20T20:46:19.356Z,83.20
2019-05-20T20:48:46.256Z,83.10
2019-05-20T20:51:13.004Z,82.90
2019-05-20T20:53:39.757Z,83.00
2019-05-20T20:56:06.632Z,83.10
2019-05-20T20:58:33.387Z,82.90
2019-05-20T21:01:00.110Z,82.80
2019-05-20T21:03:26.926Z,82.70
2019-05-20T21:05:53.706Z,83.10
2019-05-20T21:08:20.450Z,82.80
2019-05-20T21:10:47.372Z,82.80
2019-05-20T21:13:14.112Z,83.00
2019-05-20T21:15:40.869Z,83.40
2019-05-20T21:18:07.672Z,82.90
2019-05-20T21:20:34.414Z,82.80
2019-05-20T21:23:01.168Z,83.00
2019-05-20T21:25:28.051Z,81.20
2019-05-20T21:27:54.831Z,82.00
2019-05-20T21:30:21.587Z,82.50
2019-05-20T21:32:48.383Z,81.70
2019-05-20T21:35:15.120Z,82.50
2019-05-20T21:37:41.867Z,82.40
2019-05-20T21:40:08.776Z,82.20
2019-05-20T21:42:35.530Z,82.10
2019-05-20T21:45:05.571Z,82.20
2019-05-20T21:47:32.370Z,82.10
2019-05-20T21:49:59.176Z,82.00
2019-05-20T21:52:25.852Z,82.60
2019-05-20T21:54:52.644Z,82.50
2019-05-20T21:57:19.396Z,82.30
2019-05-20T21:59:46.145Z,81.80
2019-05-20T22:02:12.960Z,82.00
2019-05-20T22:04:39.710Z,82.30
2019-05-20T22:07:06.479Z,82.80
2019-05-20T22:09:33.376Z,83.00
2019-05-20T22:12:00.112Z,82.80
2019-05-20T22:14:26.880Z,83.10
2019-05-20T22:16:53.767Z,82.90
2019-05-20T22:19:20.821Z,82.90
2019-05-20T22:21:47.559Z,83.20
2019-05-20T22:24:14.472Z,82.70
2019-05-20T22:26:41.184Z,82.60
2019-05-20T22:29:07.925Z,82.70
2019-05-20T22:31:34.801Z,82.70
2019-05-20T22:34:01.532Z,83.50
2019-05-20T22:36:28.284Z,83.10
2019-05-20T22:38:56.072Z,83.20
2019-05-20T22:41:22.816Z,82.80
2019-05-20T22:43:49.541Z,82.70
2019-05-20T22:46:16.440Z,82.40
2019-05-20T22:48:43.201Z,82.60
2019-05-20T22:51:09.930Z,82.70
2019-05-20T22:53:36.759Z,82.60
2019-05-20T22:56:03.521Z,82.10
2019-05-20T22:58:30.300Z,82.20
2019-05-20T23:00:57.097Z,82.50
2019-05-20T23:03:23.852Z,82.20
2019-05-20T23:05:50.586Z,82.50
2019-05-20T23:08:18.436Z,82.50
2019-05-20T23:10:45.188Z,82.80
2019-05-20T23:13:11.910Z,82.30
2019-05-20T23:15:38.831Z,81.70
2019-05-20T23:18:05.572Z,82.30
2019-05-20T23:20:32.295Z,82.30
2019-05-20T23:22:59.081Z,82.60
2019-05-20T23:25:25.863Z,82.60
2019-05-20T23:27:52.610Z,83.00
2019-05-20T23:30:19.507Z,82.80
2019-05-20T23:32:46.256Z,82.60
2019-05-20T23:35:13.207Z,82.60
2019-05-20T23:37:40.109Z,82.90
2019-05-20T23:40:07.586Z,82.50
2019-05-20T23:42:34.338Z,83.00
2019-05-20T23:45:01.316Z,82.50
2019-05-20T23:47:28.075Z,83.00
2019-05-20T23:49:54.848Z,82.60
2019-05-20T23:52:21.733Z,82.40
2019-05-20T23:54:48.524Z,82.30
2019-05-20T23:57:15.259Z,82.60
2019-05-20T23:59:42.104Z,82.30
